Arcadia, MI

3:33 AM EST on February 07, 2016 (GMT -0500)
Benzie | | Change Station
CLOSE
Current Station
Personal Weather Station
Location: Benzonia, MI
Elevation: 811 ft
Nearby Weather Stations

Elev 811 ft 44.54 °N, 86.11 °W | Updated 3 minutes ago

Overcast
Overcast
33.0 °F
Feels Like 33 °F
N
0.0
Wind Variable Wind from South
Gusts 0.0 mph

Today
High -- | Low -- °F
--% Chance of Precip.
Yesterday
High -- | Low -- °F
Precip. -- in
Pressure 29.89 in
Visibility 7.0 miles
Clouds Mostly Cloudy 6500 ft
Mostly Cloudy 7500 ft
Overcast 10000 ft
Windchill 33 °F
Dew Point 26 °F
Humidity 76%
Rainfall 0.00 in
Snow Depth Not available.
7:56 AM 6:01 PM
Waning Crescent, 2% visible
METAR KFKS 070812Z AUTO 15005KT 7SM BKN065 BKN075 OVC100 02/00 A2989 RMK AO2 T00161004
Pressure 29.89 in
Visibility 7.0 miles
Clouds Mostly Cloudy 6500 ft
Mostly Cloudy 7500 ft
Overcast 10000 ft
Windchill 33 °F
Dew Point 26 °F
Humidity 76%
Rainfall 0.00 in
Snow Depth Not available.
7:56 AM 6:01 PM
Waning Crescent, 2% visible
METAR KFKS 070812Z AUTO 15005KT 7SM BKN065 BKN075 OVC100 02/00 A2989 RMK AO2 T00161004

10-Day Weather Forecast

Almanac

Astronomy

Feb. 07, 2016 Rise Set
Actual Time
Civil Twilight
Nautical Twilight
Astronomical Twilight
Moon
Length of Visible Light
Length of Day
Tomorrow will be .
, % of the Moon is Illuminated

Today's Extremes

State Highs State Lows

Community

WunderPhotos

Upload Photos

1,891,171 photos uploaded!

WunderBlog® & News

Nearby

Air Quality

  Air Quality AQ Index Pollutant
Not available.

Snow Depth

Station Depth Elevation

Earthquake Activity

City Distance Mag. Time & Date
Minimum magnitude displayed is 2.5.

Coastal Water Temperatures

Place Temperature

Stations

Nearby Weather Stations

Station Location Temp. Windchill Dew Point Humidity Wind Precip. Elev Updated Type
                   

Watches & Warnings

There are currently no watches in effect.